JST654 YMML-YSCB

Flight info

Callsign JST654
Flight time 0h 42m
Altitude 29000
Route DCT DOSEL Y59 ARRAN DCT
Aircraft A320/M-SDE3FGHIRWY/LB1

Departure

Time 2026-05-08 04:08
Airport Melbourne Airport (YMML)

Arrival

Time 2026-05-08 04:50
Airport Canberra Airport (YSCB)
Time Latitude Longitude Altitude Speed Heading
2026-05-08 03:41 -37.67573 144.84657 377 ft 0 kts 81°
2026-05-08 03:53 -37.67575 144.84638 377 ft 4 kts 81°
2026-05-08 03:53 -37.67579 144.84605 376 ft 4 kts 78°
2026-05-08 03:53 -37.67587 144.84573 376 ft 4 kts 53°
2026-05-08 03:53 -37.67602 144.84561 375 ft 3 kts 352°
2026-05-08 03:54 -37.67618 144.84563 374 ft 1 kts 352°
2026-05-08 03:59 -37.67611 144.84562 375 ft 3 kts 353°
2026-05-08 03:59 -37.67579 144.84557 376 ft 6 kts 353°
2026-05-08 04:00 -37.67522 144.84546 377 ft 10 kts 351°
2026-05-08 04:00 -37.67467 144.84481 378 ft 13 kts 278°
2026-05-08 04:00 -37.67472 144.84348 376 ft 17 kts 287°
2026-05-08 04:00 -37.67363 144.84300 379 ft 18 kts 352°
2026-05-08 04:01 -37.67229 144.84276 381 ft 20 kts 352°
2026-05-08 04:01 -37.67088 144.84249 384 ft 21 kts 352°
2026-05-08 04:01 -37.66944 144.84221 387 ft 21 kts 352°
2026-05-08 04:01 -37.66798 144.84194 392 ft 21 kts 351°
2026-05-08 04:02 -37.66697 144.84237 392 ft 15 kts 74°
2026-05-08 04:02 -37.66682 144.84371 397 ft 16 kts 82°
2026-05-08 04:02 -37.66664 144.84518 399 ft 18 kts 81°
2026-05-08 04:02 -37.66645 144.84674 401 ft 18 kts 82°
2026-05-08 04:03 -37.66583 144.84800 401 ft 18 kts 13°
2026-05-08 04:03 -37.66363 144.84784 410 ft 11 kts
2026-05-08 04:03 -37.66355 144.84785 412 ft 0 kts
2026-05-08 04:04 -37.66352 144.84785 409 ft 3 kts
2026-05-08 04:04 -37.66300 144.84790 412 ft 9 kts
2026-05-08 04:04 -37.66235 144.84789 413 ft 10 kts 340°
2026-05-08 04:05 -37.66223 144.84741 413 ft 0 kts 274°
2026-05-08 04:07 -37.66223 144.84739 413 ft 6 kts 274°
2026-05-08 04:07 -37.66200 144.84346 410 ft 81 kts 274°
2026-05-08 04:07 -37.66145 144.83393 415 ft 133 kts 274°
2026-05-08 04:08 -37.66067 144.82107 733 ft 147 kts 273°
2026-05-08 04:08 -37.65983 144.80824 1388 ft 146 kts 271°
2026-05-08 04:08 -37.65908 144.79552 2039 ft 145 kts 270°
2026-05-08 04:08 -37.65834 144.78264 2502 ft 155 kts 269°
2026-05-08 04:09 -37.65755 144.76795 2778 ft 180 kts 269°
2026-05-08 04:09 -37.65667 144.75127 3089 ft 206 kts 268°
2026-05-08 04:09 -37.65563 144.73216 3535 ft 231 kts 270°
2026-05-08 04:09 -37.65443 144.71135 4270 ft 242 kts 270°
2026-05-08 04:10 -37.65275 144.69004 5221 ft 249 kts 277°
2026-05-08 04:10 -37.64612 144.66934 6133 ft 262 kts 297°
2026-05-08 04:10 -37.63334 144.65220 7033 ft 278 kts 319°
2026-05-08 04:10 -37.61536 144.64161 7882 ft 293 kts 338°
2026-05-08 04:11 -37.59558 144.63424 8703 ft 299 kts 339°
2026-05-08 04:11 -37.57486 144.62896 9481 ft 310 kts 354°
2026-05-08 04:11 -37.55336 144.63112 10219 ft 320 kts 12°
2026-05-08 04:11 -37.53176 144.64156 10631 ft 341 kts 31°
2026-05-08 04:12 -37.51302 144.66111 10859 ft 361 kts 52°
2026-05-08 04:12 -37.49751 144.68664 11018 ft 383 kts 56°
2026-05-08 04:12 -37.48118 144.71423 11306 ft 400 kts 56°
2026-05-08 04:12 -37.46624 144.74401 11902 ft 404 kts 64°
2026-05-08 04:13 -37.45216 144.77499 12544 ft 409 kts 64°
2026-05-08 04:13 -37.43786 144.80622 13214 ft 414 kts 63°
2026-05-08 04:13 -37.42337 144.83770 13855 ft 417 kts 63°
2026-05-08 04:13 -37.40875 144.86935 14483 ft 420 kts 63°
2026-05-08 04:14 -37.39404 144.90126 15114 ft 424 kts 63°
2026-05-08 04:14 -37.37914 144.93351 15736 ft 427 kts 63°
2026-05-08 04:14 -37.36417 144.96596 16338 ft 431 kts 63°
2026-05-08 04:14 -37.34911 144.99870 16941 ft 435 kts 63°
2026-05-08 04:15 -37.33393 145.03177 17548 ft 438 kts 63°
2026-05-08 04:15 -37.31863 145.06506 18129 ft 442 kts 63°
2026-05-08 04:15 -37.30315 145.09862 18695 ft 446 kts 62°
2026-05-08 04:15 -37.28750 145.13242 19258 ft 449 kts 62°
2026-05-08 04:16 -37.27172 145.16644 19784 ft 453 kts 62°
2026-05-08 04:16 -37.25604 145.20019 20300 ft 456 kts 62°
2026-05-08 04:16 -37.23999 145.23472 20803 ft 459 kts 62°
2026-05-08 04:16 -37.22383 145.26948 21274 ft 462 kts 62°
2026-05-08 04:17 -37.20754 145.30446 21683 ft 466 kts 62°
2026-05-08 04:17 -37.19115 145.33962 22096 ft 468 kts 62°
2026-05-08 04:17 -37.17464 145.37499 22481 ft 471 kts 62°
2026-05-08 04:17 -37.15696 145.40975 22882 ft 475 kts 56°
2026-05-08 04:18 -37.13760 145.44347 23259 ft 479 kts 56°
2026-05-08 04:18 -37.11809 145.47743 23653 ft 481 kts 56°
2026-05-08 04:18 -37.09848 145.51158 24018 ft 484 kts 56°
2026-05-08 04:18 -37.07877 145.54585 24365 ft 486 kts 56°
2026-05-08 04:19 -37.05894 145.58030 24717 ft 488 kts 56°
2026-05-08 04:19 -37.03901 145.61485 25027 ft 492 kts 56°
2026-05-08 04:19 -37.01895 145.64966 25346 ft 494 kts 56°
2026-05-08 04:19 -36.99881 145.68457 25681 ft 496 kts 56°
2026-05-08 04:20 -36.97858 145.71962 25994 ft 498 kts 56°
2026-05-08 04:20 -36.95825 145.75485 26297 ft 500 kts 56°
2026-05-08 04:20 -36.93809 145.78973 26609 ft 503 kts 56°
2026-05-08 04:20 -36.91754 145.82522 26890 ft 505 kts 56°
2026-05-08 04:21 -36.89688 145.86089 27179 ft 507 kts 56°
2026-05-08 04:21 -36.87620 145.89650 27579 ft 506 kts 56°
2026-05-08 04:21 -36.85555 145.93202 27973 ft 505 kts 56°
2026-05-08 04:21 -36.83492 145.96748 28367 ft 504 kts 56°
2026-05-08 04:22 -36.81434 146.00283 28762 ft 503 kts 56°
2026-05-08 04:22 -36.79372 146.03821 29118 ft 504 kts 56°
2026-05-08 04:22 -36.77306 146.07361 29231 ft 506 kts 56°
2026-05-08 04:22 -36.75232 146.10913 29240 ft 507 kts 56°
2026-05-08 04:23 -36.71060 146.18046 29238 ft 510 kts 56°
2026-05-08 04:23 -36.66876 146.25179 29238 ft 510 kts 56°
2026-05-08 04:24 -36.62680 146.32305 29228 ft 510 kts 56°
2026-05-08 04:24 -36.58490 146.39429 29228 ft 510 kts 56°
2026-05-08 04:25 -36.54324 146.46496 29221 ft 510 kts 56°
2026-05-08 04:25 -36.50128 146.53599 29223 ft 509 kts 56°
2026-05-08 04:26 -36.45940 146.60677 29219 ft 508 kts 56°
2026-05-08 04:26 -36.41732 146.67751 29203 ft 509 kts 56°
2026-05-08 04:27 -36.37519 146.74813 29189 ft 509 kts 56°
2026-05-08 04:27 -36.33304 146.81896 29180 ft 509 kts 56°
2026-05-08 04:28 -36.29094 146.88962 29175 ft 510 kts 56°
2026-05-08 04:28 -36.24854 146.96027 29172 ft 511 kts 56°
2026-05-08 04:29 -36.20615 147.03084 29164 ft 511 kts 56°
2026-05-08 04:29 -36.17231 147.10661 29162 ft 504 kts 73°
2026-05-08 04:30 -36.14910 147.18822 29154 ft 503 kts 75°
2026-05-08 04:30 -36.12575 147.26989 29154 ft 504 kts 74°
2026-05-08 04:31 -36.10230 147.35155 29147 ft 504 kts 74°
2026-05-08 04:31 -36.07879 147.43333 29143 ft 506 kts 74°
2026-05-08 04:32 -36.05523 147.51526 29142 ft 506 kts 74°
2026-05-08 04:32 -36.03171 147.59712 29140 ft 506 kts 74°
2026-05-08 04:33 -36.00803 147.67898 29141 ft 506 kts 74°
2026-05-08 04:33 -35.98422 147.76086 29135 ft 507 kts 74°
2026-05-08 04:34 -35.96039 147.84271 28986 ft 507 kts 74°
2026-05-08 04:34 -35.94844 147.88372 28735 ft 506 kts 74°
2026-05-08 04:34 -35.93649 147.92462 28476 ft 507 kts 74°
2026-05-08 04:35 -35.92454 147.96538 27477 ft 506 kts 73°
2026-05-08 04:35 -35.91250 148.00646 26122 ft 512 kts 73°
2026-05-08 04:35 -35.90038 148.04773 25037 ft 510 kts 73°
2026-05-08 04:35 -35.88836 148.08849 24189 ft 502 kts 73°
2026-05-08 04:36 -35.87643 148.12882 23297 ft 497 kts 73°
2026-05-08 04:36 -35.86469 148.16861 22441 ft 491 kts 73°
2026-05-08 04:36 -35.85309 148.20798 21585 ft 486 kts 73°
2026-05-08 04:36 -35.84159 148.24699 20618 ft 484 kts 73°
2026-05-08 04:37 -35.83013 148.28580 19798 ft 478 kts 73°
2026-05-08 04:37 -35.81880 148.32406 18983 ft 473 kts 73°
2026-05-08 04:37 -35.80757 148.36189 18213 ft 467 kts 73°
2026-05-08 04:37 -35.79663 148.39871 17468 ft 462 kts 73°
2026-05-08 04:38 -35.78567 148.43560 16762 ft 457 kts 73°
2026-05-08 04:38 -35.77480 148.47215 16070 ft 453 kts 73°
2026-05-08 04:38 -35.76395 148.50848 15365 ft 450 kts 73°
2026-05-08 04:38 -35.75316 148.54451 14656 ft 447 kts 73°
2026-05-08 04:39 -35.74240 148.58034 13945 ft 446 kts 74°
2026-05-08 04:39 -35.73174 148.61591 13258 ft 441 kts 74°
2026-05-08 04:39 -35.72124 148.65120 12540 ft 438 kts 75°
2026-05-08 04:39 -35.71085 148.68626 11812 ft 434 kts 75°
2026-05-08 04:40 -35.70063 148.72076 11355 ft 419 kts 75°
2026-05-08 04:40 -35.69094 148.75315 10926 ft 391 kts 74°
2026-05-08 04:40 -35.68171 148.78407 10372 ft 382 kts 72°
2026-05-08 04:40 -35.67267 148.81460 10120 ft 378 kts 73°
2026-05-08 04:41 -35.66371 148.84495 9908 ft 377 kts 73°
2026-05-08 04:41 -35.65475 148.87524 9779 ft 375 kts 73°
2026-05-08 04:41 -35.64593 148.90476 9644 ft 355 kts 73°
2026-05-08 04:41 -35.63769 148.93217 9512 ft 329 kts 73°
2026-05-08 04:42 -35.63001 148.95767 9387 ft 308 kts 73°
2026-05-08 04:42 -35.62276 148.98178 9229 ft 297 kts 72°
2026-05-08 04:42 -35.61567 149.00528 8973 ft 291 kts 73°
2026-05-08 04:42 -35.60876 149.02829 8681 ft 279 kts 73°
2026-05-08 04:43 -35.60226 149.04998 8552 ft 261 kts 73°
2026-05-08 04:43 -35.59623 149.06995 8396 ft 246 kts 73°
2026-05-08 04:43 -35.59015 149.08934 8052 ft 242 kts 72°
2026-05-08 04:43 -35.58393 149.10882 7454 ft 249 kts 72°
2026-05-08 04:44 -35.57742 149.12905 6788 ft 260 kts 71°
2026-05-08 04:44 -35.57067 149.14995 6267 ft 262 kts 69°
2026-05-08 04:44 -35.56150 149.16850 6089 ft 246 kts 49°
2026-05-08 04:44 -35.54907 149.18227 5872 ft 237 kts 32°
2026-05-08 04:45 -35.53461 149.19098 5503 ft 227 kts 13°
2026-05-08 04:45 -35.51939 149.19436 5431 ft 221 kts 357°
2026-05-08 04:45 -35.50412 149.19450 5410 ft 219 kts 354°
2026-05-08 04:45 -35.48877 149.19447 5230 ft 219 kts 355°
2026-05-08 04:46 -35.47381 149.19449 4990 ft 209 kts 355°
2026-05-08 04:46 -35.45956 149.19449 4704 ft 201 kts 355°
2026-05-08 04:46 -35.44577 149.19449 4432 ft 195 kts 354°
2026-05-08 04:46 -35.43246 149.19448 4182 ft 188 kts 354°
2026-05-08 04:47 -35.41973 149.19447 3926 ft 177 kts 354°
2026-05-08 04:47 -35.40791 149.19449 3703 ft 162 kts 354°
2026-05-08 04:47 -35.39706 149.19450 3516 ft 148 kts 354°
2026-05-08 04:47 -35.38709 149.19449 3310 ft 143 kts 350°
2026-05-08 04:48 -35.37703 149.19448 3121 ft 144 kts 354°
2026-05-08 04:48 -35.36708 149.19447 2927 ft 142 kts 354°
2026-05-08 04:48 -35.35717 149.19446 2729 ft 139 kts 354°
2026-05-08 04:48 -35.34755 149.19471 2526 ft 138 kts 355°
2026-05-08 04:49 -35.33811 149.19454 2378 ft 136 kts 353°
2026-05-08 04:49 -35.32867 149.19453 2224 ft 136 kts 355°
2026-05-08 04:49 -35.31902 149.19446 1979 ft 139 kts 355°
2026-05-08 04:49 -35.30968 149.19447 1882 ft 125 kts 359°
2026-05-08 04:50 -35.30257 149.19441 1880 ft 78 kts 360°
2026-05-08 04:50 -35.29850 149.19439 1880 ft 51 kts 359°
2026-05-08 04:50 -35.29592 149.19415 1879 ft 25 kts 311°
2026-05-08 04:50 -35.29591 149.19269 1879 ft 13 kts 237°
2026-05-08 04:51 -35.29678 149.19241 1879 ft 13 kts 182°
2026-05-08 04:51 -35.29779 149.19242 1879 ft 16 kts 179°
2026-05-08 04:51 -35.29899 149.19242 1880 ft 18 kts 180°
2026-05-08 04:51 -35.30036 149.19242 1880 ft 21 kts 180°
2026-05-08 04:52 -35.30190 149.19241 1880 ft 23 kts 181°
2026-05-08 04:52 -35.30362 149.19235 1876 ft 26 kts 179°
2026-05-08 04:52 -35.30541 149.19239 1880 ft 24 kts 180°
2026-05-08 04:52 -35.30641 149.19210 1880 ft 13 kts 248°
2026-05-08 04:53 -35.30666 149.19116 1880 ft 10 kts 229°
2026-05-08 04:53 -35.30678 149.19099 1880 ft 0 kts 231°